Flight Track Log - Related Links

Times and Time Zones

All times are in EST time to prevent confusion due to time zone crossing. See the N453AM flight status page for this flight to view local times or setup timezone preferences in your user account.

Time Position Orientation Groundspeed Altitude Reporting Facility
EST Latitude Longitude Course Direction KTS MPH feet Rate Location/Type
Fri 08:42:49 PM 35.8178 -115.0545 13° North  Level FlightAware Approximate
Fri 08:44:12 PM 36.0981 -114.9775 101° East 281 323 10,500  Level Los Angeles Center
Fri 08:45:12 PM 36.0803 -114.8594 102° East 312 359 13,700 3,450 Climbing Los Angeles Center
Fri 08:46:12 PM 36.0603 -114.7442 100° East 333 383 17,400 2,700 Climbing Los Angeles Center
Fri 08:47:12 PM 36.0422 -114.6239 102° East 343 395 19,100 1,700 Climbing Los Angeles Center
Fri 08:48:12 PM 36.0194 -114.4883 101° East 367 422 20,800 2,400 Climbing Los Angeles Center
Fri 08:49:12 PM 35.9989 -114.3525 102° East 388 447 23,900 2,900 Climbing Los Angeles Center
Fri 08:50:12 PM 35.9761 -114.2197 101° East 394 453 26,600 2,450 Climbing Los Angeles Center
Fri 08:51:12 PM 35.9550 -114.0842 102° East 394 453 28,800 2,200 Climbing Los Angeles Center
Fri 08:52:12 PM 35.9319 -113.9461 101° East 394 453 31,000 2,050 Climbing Los Angeles Center
Fri 08:53:12 PM 35.9106 -113.8058 91° East 405 466 32,900 1,800 Climbing Los Angeles Center
Fri 08:54:12 PM 35.9078 -113.6622 91° East 411 473 34,600 1,850 Climbing Los Angeles Center
Fri 08:55:12 PM 35.9047 -113.5214 90° East 411 473 36,600 1,200 Climbing Los Angeles Center
Fri 08:56:12 PM 35.9036 -113.3753 91° East 411 473 37,000 200 Climbing Los Angeles Center
Fri 08:57:12 PM 35.9019 -113.2164 91° East 435 501 37,000  Level Los Angeles Center
Fri 08:58:12 PM 35.9000 -113.0472 91° East 465 535 37,000  Level Los Angeles Center
Fri 08:59:12 PM 35.8975 -112.8756 91° East 488 562 37,000  Level Los Angeles Center
Fri 09:00:12 PM 35.8950 -112.7064 91° East 494 568 37,000  Level Los Angeles Center
Fri 09:01:46 PM 35.8889 -112.4314 91° East 502 578 37,000  Level Denver Center
Fri 09:02:46 PM 35.8856 -112.2594 91° East 507 583 37,000  Level Denver Center
Fri 09:03:46 PM 35.8836 -112.0878 92° East 507 583 37,000  Level Denver Center
Fri 09:04:46 PM 35.8775 -111.9158 91° East 501 577 37,000  Level Denver Center
Fri 09:05:46 PM 35.8750 -111.7494 92° East 501 577 37,000  Level Denver Center
Fri 09:06:46 PM 35.8703 -111.5800 92° East 501 577 37,000  Level Denver Center
Fri 09:07:46 PM 35.8667 -111.4264 92° East 501 577 37,000  Level Denver Center
Fri 09:08:46 PM 35.8614 -111.2569 93° East 501 577 37,000  Level Denver Center
Fri 09:09:46 PM 35.8542 -111.0850 91° East 501 577 37,000  Level Denver Center
Fri 09:10:46 PM 35.8506 -110.9108 92° East 501 577 37,000  Level Denver Center
Fri 09:11:46 PM 35.8447 -110.7417 92° East 501 577 37,000  Level Denver Center
Fri 09:12:46 PM 35.8408 -110.5650 93° East 501 577 37,000  Level Denver Center
Fri 09:13:46 PM 35.8322 -110.3931 92° East 501 577 37,000  Level Denver Center
Fri 09:14:46 PM 35.8264 -110.2011 92° East 501 577 37,000 176 Level Denver Center
Fri 09:17:10 PM 35.8144 -109.7844 92° East 515 593 37,600 441 Climbing Albuquerque Center
Fri 09:18:10 PM 35.8092 -109.6253 93° East 509 586 38,500 750 Climbing Albuquerque Center
Fri 09:19:10 PM 35.8000 -109.4408 93° East 496 571 39,100 250 Climbing Albuquerque Center
Fri 09:20:10 PM 35.7925 -109.2714 93° East 496 571 39,000 -50 Descending Albuquerque Center
Fri 09:21:10 PM 35.7867 -109.1125 94° East 505 581 39,000  Level Albuquerque Center
Fri 09:22:10 PM 35.7767 -108.9178 94° East 519 597 39,000  Level Albuquerque Center
Fri 09:23:10 PM 35.7664 -108.7383 93° East 519 597 39,000  Level Albuquerque Center
Fri 09:24:10 PM 35.7597 -108.5797 93° East 526 605 39,000  Level Albuquerque Center
Fri 09:25:10 PM 35.7511 -108.4003 93° East 526 605 39,000  Level Albuquerque Center
Fri 09:26:10 PM 35.7422 -108.2006 94° East 521 600 39,000  Level Albuquerque Center
Fri 09:27:10 PM 35.7308 -108.0214 94° East 521 600 39,000  Level Albuquerque Center
Fri 09:28:10 PM 35.7211 -107.8600 94° East 521 600 39,000  Level Albuquerque Center
Fri 09:29:10 PM 35.7092 -107.6631 94° East 521 600 39,000  Level Albuquerque Center
Fri 09:30:10 PM 35.6992 -107.4839 94° East 521 600 39,000  Level Albuquerque Center
Fri 09:31:10 PM 35.6889 -107.2997 95° East 521 600 39,000  Level Albuquerque Center
Fri 09:32:10 PM 35.6781 -107.1414 95° East 526 605 39,000  Level Albuquerque Center
Fri 09:33:10 PM 35.6631 -106.9444 94° East 526 605 39,000  Level Albuquerque Center
Fri 09:34:10 PM 35.6539 -106.7631 94° East 520 598 39,000  Level Albuquerque Center
Fri 09:35:10 PM 35.6425 -106.5842 95° East 520 598 39,000  Level Albuquerque Center
Fri 09:36:10 PM 35.6308 -106.4208 95° East 526 605 39,000  Level Albuquerque Center
Fri 09:37:10 PM 35.6167 -106.2217 94° East 533 613 39,000  Level Albuquerque Center
Fri 09:38:10 PM 35.6064 -106.0403 94° East 538 619 39,000  Level Albuquerque Center
Fri 09:39:10 PM 35.5961 -105.8719 96° East 538 619 39,000  Level Albuquerque Center
Fri 09:40:10 PM 35.5811 -105.6883 96° East 543 625 39,000  Level Albuquerque Center
Fri 09:41:10 PM 35.5636 -105.4894 95° East 533 613 39,000  Level Albuquerque Center
Fri 09:42:10 PM 35.5503 -105.3061 94° East 533 613 39,000  Level Albuquerque Center
Fri 09:43:10 PM 35.5408 -105.1250 96° East 538 619 39,000  Level Albuquerque Center
Fri 09:44:10 PM 35.5247 -104.9417 96° East 538 619 39,000  Level Albuquerque Center
Fri 09:45:10 PM 35.5083 -104.7586 95° East 538 619 39,000  Level Albuquerque Center
Fri 09:46:10 PM 35.4961 -104.5906 96° East 538 619 39,000  Level Albuquerque Center
Fri 09:47:10 PM 35.4792 -104.4075 96° East 538 619 39,000  Level Albuquerque Center
Fri 09:48:10 PM 35.4642 -104.2269 96° East 538 619 39,000 -350 Level Albuquerque Center
Fri 09:49:10 PM 35.4461 -104.0211 96° East 538 619 38,300 -1,100 Descending Albuquerque Center
Fri 09:50:10 PM 35.4308 -103.8458 96° East 538 619 36,800 -1,900 Descending Albuquerque Center
Fri 09:51:10 PM 35.4150 -103.6681 96° East 526 605 34,500 -2,350 Descending Albuquerque Center
Fri 09:52:10 PM 35.3986 -103.4828 97° East 532 612 32,100 -1,750 Descending Albuquerque Center
Fri 09:53:10 PM 35.3800 -103.2978 96° East 547 629 31,000 -550 Descending Albuquerque Center
Fri 09:54:10 PM 35.3653 -103.1125 98° East 555 639 31,000 50 Level Albuquerque Center
Fri 09:55:10 PM 35.3439 -102.9253 96° East 555 639 31,100 -1,850 Climbing Albuquerque Center
Fri 09:56:10 PM 35.3294 -102.7656 97° East 549 632 27,300 -4,612 Descending Albuquerque Center
Fri 09:57:11 PM 35.3122 -102.5883 98° East 505 581 21,800 -4,550 Descending Albuquerque Center
Fri 09:58:10 PM 35.2961 -102.4519 96° East 453 521 18,200 -3,378 Descending Albuquerque Center
Fri 09:59:10 PM 35.2850 -102.3306 102° East 396 456 15,100 -3,600 Descending Albuquerque Center
Fri 10:00:10 PM 35.2656 -102.2172 110° East 356 410 11,000 -2,700 Descending Albuquerque Center
Fri 10:01:10 PM 35.2386 -102.1275 109° East 314 361 9,700 -1,350 Descending Albuquerque Center
Fri 10:02:10 PM 35.2139 -102.0400 89° East 284 327 8,300 -1,400 Descending Albuquerque Center
Fri 10:09:49 PM 35.2167 -101.7000 89° East  Level FlightAware Approximate

Login

Don't have an account? Register now (free) for customized features, flight alerts, and more!